createdAt,value
2019-02-28T00:00:37.234Z,61.31
2019-02-28T00:03:11.369Z,61.92
2019-02-28T00:05:44.204Z,62.28
2019-02-28T00:08:16.918Z,67.88
2019-02-28T00:10:49.748Z,58.49
2019-02-28T00:13:22.604Z,50.55
2019-02-28T00:15:55.466Z,49.32
2019-02-28T00:18:28.302Z,49.84
2019-02-28T00:21:06.062Z,50.52
2019-02-28T00:23:36.120Z,51.32
2019-02-28T00:26:11.445Z,51.98
2019-02-28T00:28:43.688Z,52.75
2019-02-28T00:31:16.553Z,53.78
2019-02-28T00:33:49.392Z,54.21
2019-02-28T00:36:22.246Z,55.01
2019-02-28T00:38:55.110Z,55.48
2019-02-28T00:41:28.018Z,56.56
2019-02-28T00:44:00.774Z,56.60
2019-02-28T00:46:33.595Z,57.16
2019-02-28T00:49:06.364Z,57.87
2019-02-28T00:51:39.116Z,58.56
2019-02-28T00:54:12.002Z,58.86
2019-02-28T00:56:44.823Z,59.63
2019-02-28T00:59:17.642Z,60.12
2019-02-28T01:01:50.427Z,60.12
2019-02-28T01:04:23.248Z,60.15
2019-02-28T01:06:55.986Z,60.44
2019-02-28T01:09:30.238Z,61.16
2019-02-28T01:12:03.271Z,61.18
2019-02-28T01:14:36.672Z,61.98
2019-02-28T01:17:09.564Z,62.13
2019-02-28T01:19:42.424Z,68.08
2019-02-28T01:22:15.229Z,58.19
2019-02-28T01:24:48.079Z,50.07
2019-02-28T01:27:21.760Z,49.76
2019-02-28T01:29:54.694Z,49.99
2019-02-28T01:32:27.447Z,50.63
2019-02-28T01:35:00.276Z,51.24
2019-02-28T01:37:33.150Z,51.93
2019-02-28T01:40:06.134Z,52.59
2019-02-28T01:42:38.885Z,53.23
2019-02-28T01:45:11.669Z,53.85
2019-02-28T01:47:44.513Z,54.61
2019-02-28T01:50:17.337Z,55.28
2019-02-28T01:52:50.073Z,55.95
2019-02-28T01:55:22.995Z,56.82
2019-02-28T01:57:55.782Z,57.20
2019-02-28T02:00:31.522Z,58.14
2019-02-28T02:03:04.303Z,58.36
2019-02-28T02:05:37.011Z,58.66
2019-02-28T02:08:09.859Z,59.67
2019-02-28T02:10:42.706Z,60.18
2019-02-28T02:13:15.455Z,60.83
2019-02-28T02:15:51.110Z,61.06
2019-02-28T02:18:22.957Z,61.49
2019-02-28T02:20:57.396Z,61.29
2019-02-28T02:23:30.255Z,61.44
2019-02-28T02:26:03.093Z,61.87
2019-02-28T02:28:35.923Z,62.22
2019-02-28T02:31:09.233Z,62.13
2019-02-28T02:33:51.120Z,65.90
2019-02-28T02:36:19.592Z,54.77
2019-02-28T02:38:52.508Z,48.13
2019-02-28T02:41:25.373Z,48.29
2019-02-28T02:43:58.275Z,48.68
2019-02-28T02:46:31.137Z,49.48
2019-02-28T02:49:03.913Z,50.37
2019-02-28T02:51:36.738Z,50.94
2019-02-28T02:54:09.606Z,51.54
2019-02-28T02:56:42.467Z,52.36
2019-02-28T02:59:15.280Z,52.96
2019-02-28T03:01:48.030Z,53.53
2019-02-28T03:04:22.999Z,54.51
2019-02-28T03:06:55.244Z,55.08
2019-02-28T03:09:28.089Z,55.53
2019-02-28T03:12:00.810Z,55.76
2019-02-28T03:14:33.715Z,56.57
2019-02-28T03:17:11.483Z,57.09
2019-02-28T03:19:42.033Z,57.72
2019-02-28T03:22:14.953Z,58.22
2019-02-28T03:24:51.159Z,58.55
2019-02-28T03:27:22.481Z,58.94
2019-02-28T03:29:55.256Z,59.21
2019-02-28T03:32:39.262Z,60.07
2019-02-28T03:35:02.484Z,60.18
2019-02-28T03:37:35.345Z,60.95
2019-02-28T03:40:08.969Z,61.18
2019-02-28T03:42:41.980Z,60.73
2019-02-28T03:45:15.295Z,61.04
2019-02-28T03:47:48.489Z,61.23
2019-02-28T03:50:22.297Z,61.90
2019-02-28T03:52:56.038Z,61.58
2019-02-28T03:55:29.037Z,65.66
2019-02-28T03:58:05.412Z,58.15
2019-02-28T04:00:36.307Z,50.39
2019-02-28T04:03:09.347Z,50.00
2019-02-28T04:05:42.106Z,50.41
2019-02-28T04:08:14.940Z,51.22
2019-02-28T04:10:47.716Z,51.81
2019-02-28T04:13:20.548Z,52.59
2019-02-28T04:16:07.663Z,53.40
2019-02-28T04:18:27.829Z,54.23
2019-02-28T04:21:00.648Z,54.43
2019-02-28T04:23:36.095Z,55.66
2019-02-28T04:26:08.069Z,56.09
2019-02-28T04:28:42.389Z,56.82
2019-02-28T04:31:19.142Z,57.33
2019-02-28T04:33:49.817Z,58.34
2019-02-28T04:36:22.682Z,58.40
2019-02-28T04:38:55.538Z,58.89
2019-02-28T04:41:32.392Z,59.40
2019-02-28T04:44:02.795Z,59.26
2019-02-28T04:46:35.563Z,60.29
2019-02-28T04:49:08.407Z,60.29
2019-02-28T04:51:41.341Z,61.31
2019-02-28T04:54:14.090Z,60.32
2019-02-28T04:56:47.015Z,61.47
2019-02-28T04:59:19.869Z,60.69
2019-02-28T05:01:52.742Z,60.49
2019-02-28T05:04:27.053Z,61.45
2019-02-28T05:06:59.920Z,60.34
2019-02-28T05:09:32.739Z,60.45
2019-02-28T05:12:06.021Z,60.78
2019-02-28T05:14:38.996Z,60.28
2019-02-28T05:17:11.769Z,60.22
2019-02-28T05:19:44.525Z,60.77
2019-02-28T05:22:17.312Z,60.20
2019-02-28T05:24:50.340Z,61.03
2019-02-28T05:27:24.428Z,60.25
2019-02-28T05:29:58.767Z,60.78
2019-02-28T05:32:32.177Z,66.40
2019-02-28T05:35:06.540Z,56.71
2019-02-28T05:37:39.566Z,48.57
2019-02-28T05:40:13.398Z,48.11
2019-02-28T05:42:47.432Z,48.86
2019-02-28T05:45:20.432Z,49.22
2019-02-28T05:47:53.482Z,50.27
2019-02-28T05:50:26.309Z,50.29
2019-02-28T05:52:59.201Z,51.13
2019-02-28T05:55:32.555Z,51.42
2019-02-28T05:58:05.677Z,52.19
2019-02-28T06:00:38.632Z,52.71
2019-02-28T06:03:11.465Z,53.48
2019-02-28T06:05:46.399Z,54.22
2019-02-28T06:08:19.006Z,54.53
2019-02-28T06:10:52.005Z,55.26
2019-02-28T06:13:24.947Z,56.13
2019-02-28T06:15:57.624Z,56.41
2019-02-28T06:18:33.376Z,57.25
2019-02-28T06:21:05.077Z,58.06
2019-02-28T06:23:40.746Z,58.35
2019-02-28T06:26:12.415Z,58.56
2019-02-28T06:28:45.228Z,59.44
2019-02-28T06:31:18.072Z,60.05
2019-02-28T06:33:51.025Z,60.40
2019-02-28T06:36:25.732Z,61.28
2019-02-28T06:38:58.303Z,61.21
2019-02-28T06:41:31.115Z,61.91
2019-02-28T06:44:04.118Z,62.15
2019-02-28T06:46:45.879Z,62.11
2019-02-28T06:49:18.798Z,62.43
2019-02-28T06:51:52.003Z,63.75
2019-02-28T06:54:24.862Z,52.46
2019-02-28T06:56:57.626Z,48.55
2019-02-28T06:59:31.751Z,49.70
2019-02-28T07:02:04.681Z,50.25
2019-02-28T07:04:37.465Z,51.51
2019-02-28T07:07:13.507Z,52.37
2019-02-28T07:09:44.760Z,52.49
2019-02-28T07:12:17.543Z,52.60
2019-02-28T07:14:50.335Z,53.57
2019-02-28T07:17:24.800Z,54.38
2019-02-28T07:20:01.300Z,54.71
2019-02-28T07:22:32.080Z,55.22
2019-02-28T07:25:05.394Z,55.70
2019-02-28T07:27:38.140Z,56.31
2019-02-28T07:30:17.797Z,57.53
2019-02-28T07:32:49.488Z,57.60
2019-02-28T07:35:22.254Z,58.45
2019-02-28T07:37:54.980Z,58.75
2019-02-28T07:40:27.885Z,59.35
2019-02-28T07:43:00.581Z,59.91
2019-02-28T07:45:34.148Z,59.55
2019-02-28T07:48:07.075Z,60.22
2019-02-28T07:50:39.842Z,60.58
2019-02-28T07:53:12.641Z,61.17
2019-02-28T07:55:45.373Z,60.96
2019-02-28T07:58:18.261Z,61.22
2019-02-28T08:00:52.628Z,61.75
2019-02-28T08:03:25.878Z,61.80
2019-02-28T08:06:04.477Z,62.26
2019-02-28T08:08:33.378Z,62.47
2019-02-28T08:11:06.578Z,62.50
2019-02-28T08:13:39.415Z,54.43
2019-02-28T08:16:12.178Z,49.98
2019-02-28T08:18:45.035Z,50.51
2019-02-28T08:21:18.857Z,51.32
2019-02-28T08:23:51.894Z,52.14
2019-02-28T08:26:24.754Z,52.62
2019-02-28T08:28:57.587Z,52.94
2019-02-28T08:31:32.029Z,52.95
2019-02-28T08:34:05.916Z,53.57
2019-02-28T08:36:38.713Z,53.59
2019-02-28T08:39:16.124Z,54.31
2019-02-28T08:41:49.688Z,54.42
2019-02-28T08:44:23.977Z,54.63
2019-02-28T08:46:57.027Z,54.38
2019-02-28T08:49:29.964Z,54.90
2019-02-28T08:52:05.578Z,54.59
2019-02-28T08:54:37.376Z,54.45
2019-02-28T08:57:10.088Z,54.07
2019-02-28T08:59:42.893Z,52.53
2019-02-28T09:02:18.180Z,53.04
2019-02-28T09:04:51.057Z,52.20
2019-02-28T09:07:25.041Z,52.06
2019-02-28T09:09:57.798Z,50.83
2019-02-28T09:12:33.305Z,50.34
2019-02-28T09:15:05.897Z,49.58
2019-02-28T09:17:38.845Z,48.66
2019-02-28T09:20:12.091Z,49.75
2019-02-28T09:22:44.945Z,47.62
2019-02-28T09:25:21.378Z,47.30
2019-02-28T09:27:52.758Z,46.62
2019-02-28T09:30:32.428Z,45.98
2019-02-28T09:33:05.419Z,45.47
2019-02-28T09:35:38.134Z,45.50
2019-02-28T09:38:14.239Z,45.60
2019-02-28T09:40:49.103Z,45.90
2019-02-28T09:43:24.189Z,44.48
2019-02-28T09:45:59.963Z,44.96
2019-02-28T09:48:33.984Z,44.18
2019-02-28T09:51:07.563Z,43.66
2019-02-28T09:53:40.290Z,43.78
2019-02-28T09:56:13.056Z,43.83
2019-02-28T09:58:45.862Z,41.82
2019-02-28T10:01:21.297Z,41.16
2019-02-28T10:03:55.330Z,40.37
2019-02-28T10:06:27.704Z,40.05
2019-02-28T10:09:00.444Z,40.17
2019-02-28T10:11:34.776Z,39.41
2019-02-28T10:14:08.577Z,39.34
2019-02-28T10:16:41.393Z,38.86
2019-02-28T10:19:14.163Z,38.57
2019-02-28T10:21:51.833Z,37.69
2019-02-28T10:24:21.662Z,37.87
2019-02-28T10:26:54.445Z,37.42
2019-02-28T10:29:27.338Z,37.44
2019-02-28T10:32:00.194Z,37.02
2019-02-28T10:34:35.408Z,37.15
2019-02-28T10:37:08.370Z,36.24
2019-02-28T10:39:43.183Z,36.59
2019-02-28T10:42:16.596Z,35.93
2019-02-28T10:44:49.531Z,35.87
2019-02-28T10:47:27.890Z,35.64
2019-02-28T10:49:58.293Z,35.51
2019-02-28T10:52:31.592Z,36.02
2019-02-28T10:55:04.415Z,36.18
2019-02-28T10:57:40.128Z,37.58
2019-02-28T11:00:26.259Z,36.74
2019-02-28T11:03:00.428Z,36.80
2019-02-28T11:05:34.845Z,35.73
2019-02-28T11:08:14.815Z,36.14
2019-02-28T11:10:50.410Z,35.49
2019-02-28T11:13:24.881Z,36.26
2019-02-28T11:15:57.926Z,34.99
2019-02-28T11:18:31.735Z,34.99
2019-02-28T11:21:10.223Z,35.33
2019-02-28T11:23:46.529Z,36.14
2019-02-28T11:26:19.974Z,35.99
2019-02-28T11:28:52.823Z,35.90
2019-02-28T11:31:25.898Z,36.01
2019-02-28T11:33:59.048Z,36.15
2019-02-28T11:36:34.143Z,37.07
2019-02-28T11:39:09.001Z,37.28
2019-02-28T11:41:42.203Z,37.03
2019-02-28T11:44:15.066Z,37.32
2019-02-28T11:46:49.040Z,37.74
2019-02-28T11:49:22.170Z,37.11
2019-02-28T11:51:54.898Z,37.54
2019-02-28T11:54:29.596Z,38.24
2019-02-28T11:57:06.568Z,38.73
2019-02-28T11:59:38.180Z,38.84
2019-02-28T12:02:11.056Z,39.55
2019-02-28T12:04:44.223Z,39.69
2019-02-28T12:07:17.262Z,39.55
2019-02-28T12:09:51.453Z,40.04
2019-02-28T12:12:26.334Z,40.09
2019-02-28T12:15:02.548Z,40.63
2019-02-28T12:17:34.257Z,39.87
2019-02-28T12:20:09.287Z,39.83
2019-02-28T12:22:43.514Z,40.17
2019-02-28T12:25:19.100Z,40.55
2019-02-28T12:27:52.145Z,40.42
2019-02-28T12:30:27.391Z,40.44
2019-02-28T12:33:00.349Z,40.63
2019-02-28T12:35:39.223Z,40.85
2019-02-28T12:38:08.196Z,40.67
2019-02-28T12:40:42.464Z,41.11
2019-02-28T12:43:16.897Z,40.83
2019-02-28T12:45:49.799Z,40.35
2019-02-28T12:48:22.930Z,40.25
2019-02-28T12:50:56.016Z,40.07
2019-02-28T12:53:28.826Z,40.31
2019-02-28T12:56:01.810Z,40.27
2019-02-28T12:58:38.724Z,41.04
2019-02-28T13:01:09.627Z,40.47
2019-02-28T13:03:45.788Z,40.28
2019-02-28T13:06:23.425Z,40.09
2019-02-28T13:08:53.542Z,40.14
2019-02-28T13:11:26.644Z,40.19
2019-02-28T13:14:06.581Z,39.96
2019-02-28T13:16:40.039Z,40.20
2019-02-28T13:19:29.145Z,40.16
2019-02-28T13:22:04.087Z,40.54
2019-02-28T13:24:38.477Z,40.93
2019-02-28T13:27:13.830Z,41.60
2019-02-28T13:29:59.948Z,41.70
2019-02-28T13:32:33.835Z,41.92
2019-02-28T13:35:09.362Z,42.10
2019-02-28T13:37:44.759Z,42.22
2019-02-28T13:40:17.526Z,41.71
2019-02-28T13:42:50.706Z,42.07
2019-02-28T13:45:24.755Z,42.59
2019-02-28T13:47:57.692Z,42.84
2019-02-28T13:50:32.527Z,43.26
2019-02-28T13:53:17.263Z,43.42
2019-02-28T13:55:43.942Z,43.14
2019-02-28T13:58:17.746Z,43.38
2019-02-28T14:00:56.170Z,43.83
2019-02-28T14:03:31.073Z,44.12
2019-02-28T14:06:04.302Z,44.43
2019-02-28T14:08:37.210Z,44.58
2019-02-28T14:11:10.970Z,44.81
2019-02-28T14:13:44.000Z,45.20
2019-02-28T14:16:16.997Z,45.43
2019-02-28T14:18:49.897Z,45.69
2019-02-28T14:21:23.187Z,46.11
2019-02-28T14:23:56.801Z,46.19
2019-02-28T14:26:31.130Z,46.42
2019-02-28T14:29:07.052Z,46.88
2019-02-28T14:31:40.185Z,47.56
2019-02-28T14:34:13.186Z,48.24
2019-02-28T14:36:46.194Z,48.58
2019-02-28T14:39:19.144Z,49.22
2019-02-28T14:41:55.985Z,49.22
2019-02-28T14:44:31.635Z,49.78
2019-02-28T14:47:03.840Z,49.47
2019-02-28T14:49:36.988Z,50.14
2019-02-28T14:52:10.689Z,50.62
2019-02-28T14:54:46.335Z,51.49
2019-02-28T14:57:19.879Z,50.88
2019-02-28T14:59:53.260Z,51.24
2019-02-28T15:02:28.751Z,51.34
2019-02-28T15:05:08.694Z,51.16
2019-02-28T15:07:42.184Z,51.84
2019-02-28T15:10:18.815Z,52.08
2019-02-28T15:12:55.387Z,52.52
2019-02-28T15:15:36.463Z,52.29
2019-02-28T15:18:13.059Z,52.71
2019-02-28T15:20:45.640Z,53.01
2019-02-28T15:23:19.842Z,53.31
2019-02-28T15:25:58.883Z,53.58
2019-02-28T15:28:33.288Z,53.76
2019-02-28T15:31:08.638Z,54.21
2019-02-28T15:33:50.337Z,54.24
2019-02-28T15:36:48.062Z,54.72
2019-02-28T15:39:28.740Z,54.88
2019-02-28T15:42:09.044Z,54.39
2019-02-28T15:44:46.809Z,54.80
2019-02-28T15:47:34.592Z,56.06
2019-02-28T15:50:16.383Z,56.07
2019-02-28T15:52:46.752Z,56.74
2019-02-28T15:55:25.672Z,56.96
2019-02-28T15:58:05.796Z,55.65
2019-02-28T16:00:41.957Z,57.24
2019-02-28T16:03:17.391Z,58.10
2019-02-28T16:05:51.633Z,57.95
2019-02-28T16:08:24.595Z,58.18
2019-02-28T16:10:57.546Z,58.55
2019-02-28T16:13:30.583Z,59.24
2019-02-28T16:16:04.941Z,58.59
2019-02-28T16:18:40.813Z,59.47
2019-02-28T16:21:45.904Z,58.18
2019-02-28T16:24:24.212Z,61.01
2019-02-28T16:26:58.018Z,61.75
2019-02-28T16:29:31.502Z,61.36
2019-02-28T16:32:04.355Z,61.45
2019-02-28T16:34:42.389Z,61.79
2019-02-28T16:37:15.657Z,64.64
2019-02-28T16:39:49.815Z,61.45
2019-02-28T16:42:23.162Z,52.04
2019-02-28T16:44:56.350Z,49.29
2019-02-28T16:47:29.493Z,49.12
2019-02-28T16:50:04.500Z,50.35
2019-02-28T16:52:39.935Z,51.57
2019-02-28T16:55:12.187Z,52.61
2019-02-28T16:57:47.107Z,53.51
2019-02-28T17:00:20.287Z,54.43
2019-02-28T17:02:59.990Z,55.81
2019-02-28T17:05:33.021Z,56.44
2019-02-28T17:08:06.850Z,57.31
2019-02-28T17:10:43.423Z,58.24
2019-02-28T17:13:31.088Z,58.79
2019-02-28T17:16:20.565Z,59.76
2019-02-28T17:18:56.721Z,60.95
2019-02-28T17:21:29.020Z,61.30
2019-02-28T17:24:02.346Z,62.25
2019-02-28T17:26:57.758Z,61.29
2019-02-28T17:29:50.848Z,63.55
2019-02-28T17:32:30.733Z,63.78
2019-02-28T17:35:01.045Z,56.44
2019-02-28T17:37:34.809Z,51.10
2019-02-28T17:40:09.515Z,50.72
2019-02-28T17:42:43.116Z,51.54
2019-02-28T17:45:31.483Z,52.35
2019-02-28T17:48:56.299Z,54.03
2019-02-28T17:51:58.451Z,54.92
2019-02-28T17:55:19.426Z,56.50
2019-02-28T17:58:39.113Z,57.65
2019-02-28T18:02:06.166Z,59.30
2019-02-28T18:05:33.776Z,60.41
2019-02-28T18:08:44.477Z,61.83
2019-02-28T18:12:31.596Z,63.17
2019-02-28T18:15:50.652Z,61.91
2019-02-28T18:19:33.393Z,52.15
2019-02-28T18:23:14.678Z,47.76
2019-02-28T18:27:19.966Z,49.33
2019-02-28T18:30:58.818Z,51.17
2019-02-28T18:33:34.180Z,53.48
2019-02-28T18:36:12.294Z,54.16
2019-02-28T18:38:52.696Z,55.50
2019-02-28T18:41:31.811Z,57.22
2019-02-28T18:44:19.906Z,58.15
2019-02-28T18:47:02.935Z,58.95
2019-02-28T18:49:38.636Z,60.02
2019-02-28T18:53:09.626Z,61.03
2019-02-28T18:56:08.952Z,61.66
2019-02-28T18:59:05.335Z,61.71
2019-02-28T19:02:13.637Z,62.70
2019-02-28T19:04:56.101Z,68.71
2019-02-28T19:08:58.397Z,59.58
2019-02-28T19:12:00.138Z,51.15
2019-02-28T19:15:12.065Z,51.64
2019-02-28T19:17:59.684Z,52.75
2019-02-28T19:20:38.711Z,53.61
2019-02-28T19:23:23.389Z,54.53
2019-02-28T19:27:04.323Z,55.57
2019-02-28T19:30:40.565Z,56.66
2019-02-28T19:33:33.297Z,57.56
2019-02-28T19:36:21.359Z,58.83
2019-02-28T19:38:54.403Z,59.10
2019-02-28T19:41:48.647Z,60.08
2019-02-28T19:45:17.630Z,61.11
2019-02-28T20:13:00.796Z,67.24
2019-02-28T20:14:47.970Z,50.02
2019-02-28T20:20:33.377Z,53.70
2019-02-28T20:23:09.619Z,55.09
2019-02-28T20:25:54.013Z,56.43
2019-02-28T20:28:28.077Z,57.89
2019-02-28T20:31:03.471Z,58.53
2019-02-28T20:36:44.681Z,60.55
2019-02-28T20:43:54.596Z,62.48
2019-02-28T20:48:04.160Z,69.59
2019-02-28T20:51:19.384Z,55.46
2019-02-28T20:54:27.324Z,48.51
2019-02-28T20:57:21.537Z,49.22
2019-02-28T21:00:09.984Z,50.36
2019-02-28T21:02:58.775Z,51.29
2019-02-28T21:05:42.266Z,52.35
2019-02-28T21:08:16.049Z,53.51
2019-02-28T21:10:49.313Z,54.53
2019-02-28T21:13:24.102Z,55.54
2019-02-28T21:15:57.234Z,55.64
2019-02-28T21:18:30.114Z,56.05
2019-02-28T21:21:03.117Z,57.29
2019-02-28T21:23:36.268Z,58.82
2019-02-28T21:26:09.247Z,60.46
2019-02-28T21:28:42.365Z,61.17
2019-02-28T21:31:16.508Z,61.81
2019-02-28T21:33:49.520Z,62.31
2019-02-28T21:36:22.945Z,68.80
2019-02-28T21:38:55.935Z,59.97
2019-02-28T21:41:31.237Z,52.23
2019-02-28T21:44:04.238Z,51.36
2019-02-28T21:46:37.443Z,51.83
2019-02-28T21:49:10.444Z,52.35
2019-02-28T21:51:43.534Z,52.89
2019-02-28T21:54:16.432Z,53.75
2019-02-28T21:56:49.733Z,54.59
2019-02-28T21:59:22.762Z,56.16
2019-02-28T22:01:56.905Z,56.85
2019-02-28T22:04:29.980Z,58.12
2019-02-28T22:07:02.965Z,59.32
2019-02-28T22:09:35.896Z,60.15
2019-02-28T22:12:09.764Z,61.28
2019-02-28T22:14:42.848Z,61.39
2019-02-28T22:17:15.807Z,62.08
2019-02-28T22:19:48.821Z,71.14
2019-02-28T22:22:21.949Z,62.20
2019-02-28T22:24:55.098Z,53.66
2019-02-28T22:27:28.120Z,47.61
2019-02-28T22:30:04.076Z,48.93
2019-02-28T22:32:45.819Z,50.62
2019-02-28T22:35:43.835Z,51.98
2019-02-28T22:38:16.959Z,53.26
2019-02-28T22:40:49.856Z,54.36
2019-02-28T22:43:23.054Z,55.58
2019-02-28T22:45:56.033Z,56.45
2019-02-28T22:48:29.039Z,57.82
2019-02-28T22:51:03.087Z,59.04
2019-02-28T22:53:35.948Z,59.87
2019-02-28T22:56:08.896Z,60.76
2019-02-28T22:58:41.928Z,61.17
2019-02-28T23:01:17.390Z,61.45
2019-02-28T23:03:50.364Z,62.14
2019-02-28T23:06:23.268Z,69.50
2019-02-28T23:08:56.247Z,62.28
2019-02-28T23:11:29.253Z,53.91
2019-02-28T23:14:02.117Z,48.41
2019-02-28T23:16:34.987Z,49.21
2019-02-28T23:19:08.046Z,50.24
2019-02-28T23:21:41.050Z,51.33
2019-02-28T23:24:13.904Z,52.65
2019-02-28T23:27:24.149Z,53.67
2019-02-28T23:31:00.823Z,55.08
2019-02-28T23:33:35.320Z,57.18
2019-02-28T23:36:08.289Z,57.96
2019-02-28T23:38:41.140Z,58.51
2019-02-28T23:41:14.036Z,59.63
2019-02-28T23:43:47.106Z,60.72
2019-02-28T23:46:20.149Z,61.16
2019-02-28T23:48:53.166Z,62.45
2019-02-28T23:51:28.966Z,67.66
2019-02-28T23:54:01.750Z,58.47
2019-02-28T23:56:34.755Z,50.86
2019-02-28T23:59:07.655Z,51.80
